Time;durP1;ratioP1;P1;durP2;ratioP2;P2;SDS_P1;SDS_P2;PMS_P1;PMS_P2;Temp;Humidity;BMP_temperature;BMP_pressure;BME280_temperature;BME280_humidity;BME280_pressure;Samples;Min_cycle;Max_cycle;Signal;HPM_P1;HPM_P2
2020/12/15 00:02:20;;;;;;;3.00;2.53;;;;;;;;;;5051740;28;20393;-51
2020/12/15 00:04:46;;;;;;;2.20;2.00;;;;;;;;;;5051780;28;20922;-52
2020/12/15 00:07:12;;;;;;;2.80;2.20;;;;;;;;;;5060981;28;20912;-50
2020/12/15 00:09:38;;;;;;;2.70;2.50;;;;;;;;;;5071558;28;20824;-50
2020/12/15 00:12:04;;;;;;;2.53;2.33;;;;;;;;;;5071346;28;20396;-52
2020/12/15 00:14:30;;;;;;;3.30;2.60;;;;;;;;;;5060679;28;20419;-51
2020/12/15 00:16:57;;;;;;;2.53;2.30;;;;;;;;;;5051455;28;20830;-50
2020/12/15 00:19:23;;;;;;;2.43;2.33;;;;;;;;;;5051506;28;20462;-51
2020/12/15 00:21:51;;;;;;;2.30;2.10;;;;;;;;;;5051228;28;20409;-52
2020/12/15 00:24:17;;;;;;;2.33;2.23;;;;;;;;;;5051565;28;20428;-52
2020/12/15 00:26:43;;;;;;;2.80;2.50;;;;;;;;;;5051403;28;20792;-51
2020/12/15 00:29:12;;;;;;;2.73;2.53;;;;;;;;;;5051351;28;21000;-51
2020/12/15 00:31:38;;;;;;;2.30;2.20;;;;;;;;;;5051027;28;20405;-51
2020/12/15 00:34:04;;;;;;;2.53;2.33;;;;;;;;;;5051343;28;20398;-51
2020/12/15 00:36:30;;;;;;;2.70;2.50;;;;;;;;;;5051152;28;20994;-50
2020/12/15 00:38:56;;;;;;;2.70;2.50;;;;;;;;;;5050661;28;20429;-51
2020/12/15 00:41:22;;;;;;;3.80;3.40;;;;;;;;;;5050868;28;20409;-50
2020/12/15 00:43:48;;;;;;;2.77;2.60;;;;;;;;;;5051121;28;20416;-52
2020/12/15 00:46:15;;;;;;;2.40;2.20;;;;;;;;;;5050933;28;20402;-51
2020/12/15 00:48:41;;;;;;;2.70;2.37;;;;;;;;;;5050948;28;20507;-52
2020/12/15 00:51:07;;;;;;;2.50;2.40;;;;;;;;;;5050870;28;20406;-51
2020/12/15 00:53:33;;;;;;;2.40;2.30;;;;;;;;;;5050799;28;20828;-52
2020/12/15 00:55:59;;;;;;;3.20;2.03;;;;;;;;;;5050931;28;20404;-51
2020/12/15 00:58:25;;;;;;;2.27;2.10;;;;;;;;;;5051086;28;20445;-51
2020/12/15 01:00:51;;;;;;;3.93;2.33;;;;;;;;;;5050758;28;20416;-51
2020/12/15 01:03:17;;;;;;;5.77;3.03;;;;;;;;;;5050559;28;20411;-51
2020/12/15 01:05:43;;;;;;;2.47;2.27;;;;;;;;;;5050873;28;20408;-51
2020/12/15 01:08:09;;;;;;;2.70;2.50;;;;;;;;;;5049972;28;20526;-50
2020/12/15 01:10:35;;;;;;;3.10;2.60;;;;;;;;;;5049834;28;20428;-51
2020/12/15 01:13:02;;;;;;;3.63;2.47;;;;;;;;;;5050414;28;20397;-51
2020/12/15 01:15:28;;;;;;;2.43;2.23;;;;;;;;;;5050657;28;20397;-50
2020/12/15 01:17:54;;;;;;;3.10;2.80;;;;;;;;;;5050535;28;20424;-52
2020/12/15 01:20:19;;;;;;;4.60;2.90;;;;;;;;;;5050587;28;20401;-52
2020/12/15 01:22:45;;;;;;;3.40;2.37;;;;;;;;;;5050432;28;20407;-50
2020/12/15 01:25:11;;;;;;;3.63;2.73;;;;;;;;;;5050641;28;20934;-50
2020/12/15 01:27:37;;;;;;;2.63;2.43;;;;;;;;;;5050326;28;20449;-50
2020/12/15 01:30:05;;;;;;;3.00;2.80;;;;;;;;;;5050538;28;20400;-52
2020/12/15 01:32:31;;;;;;;2.90;2.70;;;;;;;;;;5050288;28;20403;-51
2020/12/15 01:34:57;;;;;;;2.80;2.43;;;;;;;;;;5050491;28;20397;-51
2020/12/15 01:37:23;;;;;;;3.30;3.00;;;;;;;;;;5050458;28;20424;-52
2020/12/15 01:39:49;;;;;;;3.33;3.03;;;;;;;;;;5049746;28;20428;-52
2020/12/15 01:42:15;;;;;;;4.80;3.17;;;;;;;;;;5050260;28;20420;-52
2020/12/15 01:44:41;;;;;;;2.77;2.57;;;;;;;;;;5050406;28;20454;-51
2020/12/15 01:47:07;;;;;;;3.10;2.80;;;;;;;;;;5049847;28;20907;-51
2020/12/15 01:49:33;;;;;;;2.80;2.60;;;;;;;;;;5050447;28;20458;-52
2020/12/15 01:51:59;;;;;;;3.73;2.87;;;;;;;;;;5050264;28;20398;-52
2020/12/15 01:54:25;;;;;;;2.53;2.33;;;;;;;;;;5050411;28;20437;-52
2020/12/15 01:56:51;;;;;;;3.13;2.93;;;;;;;;;;5050254;28;20440;-52
2020/12/15 01:59:18;;;;;;;2.80;2.60;;;;;;;;;;5050332;28;20407;-51
2020/12/15 02:01:47;;;;;;;3.10;2.90;;;;;;;;;;5049714;28;20428;-51
2020/12/15 02:04:13;;;;;;;3.53;2.97;;;;;;;;;;5050136;28;20451;-52
2020/12/15 02:06:40;;;;;;;3.87;2.90;;;;;;;;;;5050025;28;20428;-51
2020/12/15 02:09:07;;;;;;;3.80;2.57;;;;;;;;;;5049980;28;20444;-51
2020/12/15 02:11:33;;;;;;;4.43;3.20;;;;;;;;;;5069253;28;20532;-51
2020/12/15 02:13:59;;;;;;;4.33;3.10;;;;;;;;;;5070492;28;20403;-51
2020/12/15 02:16:26;;;;;;;3.93;3.27;;;;;;;;;;5070284;28;20478;-51
2020/12/15 02:18:52;;;;;;;3.17;2.87;;;;;;;;;;5070414;28;20400;-52
2020/12/15 02:21:18;;;;;;;3.40;3.13;;;;;;;;;;5071684;28;20454;-51
2020/12/15 02:23:44;;;;;;;4.17;3.40;;;;;;;;;;5073825;28;20431;-52
2020/12/15 02:26:10;;;;;;;3.30;2.83;;;;;;;;;;5073498;28;20435;-52
2020/12/15 02:28:36;;;;;;;3.50;3.20;;;;;;;;;;5073586;28;20482;-52
2020/12/15 02:31:03;;;;;;;4.70;2.63;;;;;;;;;;5073494;28;20407;-52
2020/12/15 02:33:30;;;;;;;3.53;3.30;;;;;;;;;;5073486;28;20396;-52
2020/12/15 02:35:57;;;;;;;3.90;3.60;;;;;;;;;;5073468;28;20396;-53
2020/12/15 02:38:23;;;;;;;4.27;3.23;;;;;;;;;;5073446;28;20466;-52
2020/12/15 02:40:49;;;;;;;4.03;3.73;;;;;;;;;;5062632;28;20535;-52
2020/12/15 02:43:16;;;;;;;3.40;3.10;;;;;;;;;;5053292;28;20409;-52
2020/12/15 02:45:42;;;;;;;3.77;3.47;;;;;;;;;;5053367;28;20918;-51
2020/12/15 02:48:08;;;;;;;5.53;3.30;;;;;;;;;;5053190;28;20451;-51
2020/12/15 02:50:34;;;;;;;2.97;2.77;;;;;;;;;;5053251;28;20406;-52
2020/12/15 02:53:00;;;;;;;4.03;3.73;;;;;;;;;;5053014;28;20407;-51
2020/12/15 02:55:26;;;;;;;3.90;3.50;;;;;;;;;;5053083;28;20404;-51
2020/12/15 02:57:52;;;;;;;4.27;3.43;;;;;;;;;;5052859;28;20455;-52
2020/12/15 03:00:19;;;;;;;6.90;4.00;;;;;;;;;;5052990;28;20410;-50
2020/12/15 03:02:46;;;;;;;3.57;3.10;;;;;;;;;;5052714;28;20936;-51
2020/12/15 03:05:12;;;;;;;4.37;3.97;;;;;;;;;;5053004;28;20450;-52
2020/12/15 03:07:38;;;;;;;3.10;2.90;;;;;;;;;;5052852;28;20859;-50
2020/12/15 03:10:05;;;;;;;3.93;3.63;;;;;;;;;;5052588;28;20468;-50
2020/12/15 03:12:31;;;;;;;4.13;3.73;;;;;;;;;;5052835;28;20481;-52
2020/12/15 03:14:57;;;;;;;4.17;3.77;;;;;;;;;;5052795;28;20397;-51
2020/12/15 03:17:23;;;;;;;6.67;3.90;;;;;;;;;;5052621;28;20501;-51
2020/12/15 03:19:49;;;;;;;3.70;3.40;;;;;;;;;;5052761;28;21074;-50
2020/12/15 03:22:15;;;;;;;6.77;3.80;;;;;;;;;;5052390;28;20458;-52
2020/12/15 03:24:43;;;;;;;4.73;3.50;;;;;;;;;;5052525;28;20405;-53
2020/12/15 03:27:09;;;;;;;6.37;4.20;;;;;;;;;;5052688;28;20425;-51
2020/12/15 03:29:35;;;;;;;4.23;3.93;;;;;;;;;;5052390;28;20463;-52
2020/12/15 03:32:01;;;;;;;3.57;3.30;;;;;;;;;;5051551;28;20400;-52
2020/12/15 03:34:27;;;;;;;5.10;4.30;;;;;;;;;;5052142;28;20459;-51
2020/12/15 03:36:53;;;;;;;4.20;3.80;;;;;;;;;;5052296;28;20837;-51
2020/12/15 03:39:19;;;;;;;5.20;4.43;;;;;;;;;;5051802;28;20404;-50
2020/12/15 03:41:46;;;;;;;4.37;4.00;;;;;;;;;;5071506;28;20412;-51
2020/12/15 03:44:12;;;;;;;4.50;4.10;;;;;;;;;;5072336;28;20498;-52
2020/12/15 03:46:38;;;;;;;4.80;4.40;;;;;;;;;;5072186;28;20423;-50
2020/12/15 03:49:04;;;;;;;5.27;4.70;;;;;;;;;;5072048;28;20458;-51
2020/12/15 03:51:30;;;;;;;5.07;4.57;;;;;;;;;;5071917;28;20475;-51
2020/12/15 03:53:56;;;;;;;5.40;4.90;;;;;;;;;;5071911;28;20407;-51
2020/12/15 03:56:23;;;;;;;6.50;5.17;;;;;;;;;;5072008;28;20395;-51
2020/12/15 03:58:50;;;;;;;6.50;4.77;;;;;;;;;;5071824;28;20509;-50
2020/12/15 04:01:16;;;;;;;5.37;4.70;;;;;;;;;;5071753;28;20417;-51
2020/12/15 04:03:42;;;;;;;7.00;4.97;;;;;;;;;;5071662;28;20407;-51
2020/12/15 04:06:09;;;;;;;6.43;3.83;;;;;;;;;;5071793;28;20456;-52
2020/12/15 04:08:35;;;;;;;6.47;5.30;;;;;;;;;;5072151;28;20477;-52
2020/12/15 04:11:01;;;;;;;6.00;5.33;;;;;;;;;;5060097;28;20931;-51
2020/12/15 04:13:27;;;;;;;7.03;4.90;;;;;;;;;;5066090;28;20438;-52
2020/12/15 04:15:54;;;;;;;7.50;6.03;;;;;;;;;;5071659;28;20478;-52
2020/12/15 04:18:19;;;;;;;5.63;5.10;;;;;;;;;;5071572;28;20438;-51
2020/12/15 04:20:45;;;;;;;6.40;4.30;;;;;;;;;;5071362;28;20411;-51
2020/12/15 04:23:13;;;;;;;6.87;5.17;;;;;;;;;;5071307;28;20439;-51
2020/12/15 04:25:51;;;;;;;5.83;5.23;;;;;;;;;;5071382;28;20410;-51
2020/12/15 04:28:17;;;;;;;6.10;4.60;;;;;;;;;;5071357;28;20447;-51
2020/12/15 04:30:44;;;;;;;4.97;4.30;;;;;;;;;;5071185;28;20477;-51
2020/12/15 04:33:10;;;;;;;4.80;4.37;;;;;;;;;;5071144;28;20446;-52
2020/12/15 04:35:36;;;;;;;6.87;5.57;;;;;;;;;;5071111;28;20412;-51
2020/12/15 04:38:02;;;;;;;6.07;5.47;;;;;;;;;;5071069;28;20430;-51
2020/12/15 04:40:30;;;;;;;6.50;5.70;;;;;;;;;;5069790;28;20511;-51
2020/12/15 04:42:56;;;;;;;9.53;5.10;;;;;;;;;;5071081;28;20458;-52
2020/12/15 04:45:22;;;;;;;5.70;5.13;;;;;;;;;;5070862;28;20407;-51
2020/12/15 04:47:49;;;;;;;6.13;5.53;;;;;;;;;;5070963;28;21189;-52
2020/12/15 04:50:17;;;;;;;5.83;5.33;;;;;;;;;;5070893;28;20758;-51
2020/12/15 04:52:56;;;;;;;6.13;5.53;;;;;;;;;;5070741;28;20881;-51
2020/12/15 04:55:23;;;;;;;5.90;5.40;;;;;;;;;;5070987;28;20433;-52
2020/12/15 04:57:49;;;;;;;6.30;5.70;;;;;;;;;;5070703;28;20527;-51
2020/12/15 05:00:16;;;;;;;6.63;6.00;;;;;;;;;;5070915;28;20515;-51
2020/12/15 05:02:44;;;;;;;5.70;5.20;;;;;;;;;;5066167;28;20443;-52
2020/12/15 05:05:10;;;;;;;8.80;4.93;;;;;;;;;;5050819;28;20483;-51
2020/12/15 05:07:39;;;;;;;6.00;5.47;;;;;;;;;;5050646;28;20439;-51
2020/12/15 05:10:06;;;;;;;9.13;5.60;;;;;;;;;;5050762;28;20464;-52
2020/12/15 05:12:31;;;;;;;7.90;5.70;;;;;;;;;;5050388;28;20423;-52
2020/12/15 05:14:59;;;;;;;5.90;5.10;;;;;;;;;;5050773;28;20405;-51
2020/12/15 05:17:28;;;;;;;6.43;5.80;;;;;;;;;;5050553;28;20784;-52
2020/12/15 05:19:54;;;;;;;6.30;5.53;;;;;;;;;;5050813;28;20424;-52
2020/12/15 05:22:20;;;;;;;7.50;5.00;;;;;;;;;;5050312;28;20502;-52
2020/12/15 05:24:50;;;;;;;6.30;5.67;;;;;;;;;;5050591;28;20406;-52
2020/12/15 05:27:16;;;;;;;6.03;5.53;;;;;;;;;;5050467;28;20902;-52
2020/12/15 05:29:43;;;;;;;6.10;5.60;;;;;;;;;;5050493;28;20463;-52
2020/12/15 05:32:09;;;;;;;5.40;4.83;;;;;;;;;;5050259;28;20890;-52
2020/12/15 05:34:35;;;;;;;5.77;5.27;;;;;;;;;;5066029;28;20416;-51
2020/12/15 05:37:01;;;;;;;7.20;5.70;;;;;;;;;;5070602;28;20782;-52
2020/12/15 05:39:28;;;;;;;6.33;5.73;;;;;;;;;;5070486;28;21176;-51
2020/12/15 05:42:07;;;;;;;8.10;5.70;;;;;;;;;;5070254;28;20463;-51
2020/12/15 05:44:35;;;;;;;8.83;6.17;;;;;;;;;;5070352;28;20510;-51
2020/12/15 05:47:05;;;;;;;7.43;6.10;;;;;;;;;;5070536;28;20491;-51
2020/12/15 05:49:32;;;;;;;8.17;5.73;;;;;;;;;;5070190;28;20448;-51
2020/12/15 05:51:59;;;;;;;6.77;6.10;;;;;;;;;;5070175;28;20483;-52
2020/12/15 05:54:25;;;;;;;7.17;6.37;;;;;;;;;;5070254;28;20966;-51
2020/12/15 05:57:04;;;;;;;6.27;5.63;;;;;;;;;;5073407;28;20510;-51
2020/12/15 05:59:31;;;;;;;7.80;5.63;;;;;;;;;;5074137;28;20499;-49
2020/12/15 06:02:07;;;;;;;6.40;5.73;;;;;;;;;;5073920;28;20486;-48
2020/12/15 06:04:34;;;;;;;6.50;5.97;;;;;;;;;;5061254;28;20456;-48
2020/12/15 06:07:01;;;;;;;6.73;6.10;;;;;;;;;;5054079;28;20460;-53
2020/12/15 06:09:29;;;;;;;7.10;5.60;;;;;;;;;;5053922;28;20811;-49
2020/12/15 06:11:56;;;;;;;5.90;5.40;;;;;;;;;;5053791;28;20399;-49
2020/12/15 06:14:23;;;;;;;6.53;5.90;;;;;;;;;;5053897;28;20397;-49
2020/12/15 06:16:49;;;;;;;6.93;6.33;;;;;;;;;;5053976;28;20478;-48
2020/12/15 06:19:18;;;;;;;8.43;6.60;;;;;;;;;;5053819;28;20416;-48
2020/12/15 06:22:02;;;;;;;6.97;6.27;;;;;;;;;;5053670;28;20458;-48
2020/12/15 06:24:30;;;;;;;6.17;5.57;;;;;;;;;;5053741;28;20409;-52
2020/12/15 06:26:58;;;;;;;6.40;5.80;;;;;;;;;;5053829;28;20486;-52
2020/12/15 06:29:28;;;;;;;7.57;6.23;;;;;;;;;;5053769;28;20583;-48
2020/12/15 06:31:56;;;;;;;8.23;6.63;;;;;;;;;;5053593;28;20420;-49
2020/12/15 06:34:26;;;;;;;7.63;6.77;;;;;;;;;;5053223;28;20450;-49
2020/12/15 06:36:55;;;;;;;9.00;7.00;;;;;;;;;;5053707;28;20541;-49
2020/12/15 06:39:23;;;;;;;9.07;6.67;;;;;;;;;;5053705;28;20520;-48
2020/12/15 06:41:56;;;;;;;7.53;6.83;;;;;;;;;;5061906;28;20426;-52
2020/12/15 06:44:29;;;;;;;6.97;6.27;;;;;;;;;;5073736;28;20396;-49
2020/12/15 06:46:55;;;;;;;7.13;6.47;;;;;;;;;;5073472;28;20428;-50
2020/12/15 06:49:31;;;;;;;7.73;7.00;;;;;;;;;;5073326;28;20454;-50
2020/12/15 06:51:58;;;;;;;7.67;6.97;;;;;;;;;;5073000;28;20407;-51
2020/12/15 06:54:30;;;;;;;7.80;6.80;;;;;;;;;;5072706;28;20405;-48
2020/12/15 06:57:00;;;;;;;8.17;6.07;;;;;;;;;;5072396;28;20436;-49
2020/12/15 06:59:29;;;;;;;6.67;6.07;;;;;;;;;;5072348;28;20395;-49
2020/12/15 07:02:16;;;;;;;9.03;6.70;;;;;;;;;;5072109;28;20400;-49
2020/12/15 07:04:43;;;;;;;9.30;6.43;;;;;;;;;;5055216;28;20848;-50
2020/12/15 07:07:09;;;;;;;6.80;6.13;;;;;;;;;;5052241;28;20845;-49
2020/12/15 07:09:35;;;;;;;10.00;8.97;;;;;;;;;;5052093;28;20872;-51
2020/12/15 07:12:10;;;;;;;7.17;6.47;;;;;;;;;;5052272;28;20408;-52
2020/12/15 07:14:36;;;;;;;8.27;7.47;;;;;;;;;;5052883;28;20451;-49
2020/12/15 07:17:03;;;;;;;10.57;7.50;;;;;;;;;;5052666;28;20420;-52
2020/12/15 07:19:29;;;;;;;6.73;6.10;;;;;;;;;;5052786;28;20404;-49
2020/12/15 07:21:55;;;;;;;8.60;7.60;;;;;;;;;;5052341;28;20427;-49
2020/12/15 07:24:21;;;;;;;7.57;6.87;;;;;;;;;;5052610;28;20408;-50
2020/12/15 07:26:48;;;;;;;9.23;7.17;;;;;;;;;;5052468;28;20453;-50
2020/12/15 07:29:17;;;;;;;7.37;6.67;;;;;;;;;;5052530;28;20459;-51
2020/12/15 07:31:43;;;;;;;8.00;7.20;;;;;;;;;;5052151;28;20412;-49
2020/12/15 07:34:11;;;;;;;8.20;7.40;;;;;;;;;;5068987;28;20436;-48
2020/12/15 07:36:47;;;;;;;7.67;6.97;;;;;;;;;;5072289;28;20984;-49
2020/12/15 07:39:13;;;;;;;7.60;6.80;;;;;;;;;;5072301;28;20442;-49
2020/12/15 07:41:39;;;;;;;7.17;6.50;;;;;;;;;;5063183;28;20425;-49
2020/12/15 07:44:08;;;;;;;7.47;6.67;;;;;;;;;;5068918;28;20516;-49
2020/12/15 07:46:34;;;;;;;11.00;6.67;;;;;;;;;;5072088;28;20431;-51
2020/12/15 07:49:03;;;;;;;8.40;6.57;;;;;;;;;;5072115;28;20449;-52
2020/12/15 07:51:29;;;;;;;7.20;6.50;;;;;;;;;;5071730;28;20405;-50
2020/12/15 07:53:57;;;;;;;8.20;7.40;;;;;;;;;;5071904;28;20407;-49
2020/12/15 07:56:24;;;;;;;9.10;7.70;;;;;;;;;;5064987;28;20482;-51
2020/12/15 07:58:51;;;;;;;9.07;7.40;;;;;;;;;;5052375;28;20452;-49
2020/12/15 08:01:20;;;;;;;7.67;6.90;;;;;;;;;;5052332;28;20450;-51
2020/12/15 08:03:46;;;;;;;10.77;6.67;;;;;;;;;;5051656;28;20444;-51
2020/12/15 08:06:13;;;;;;;9.13;7.70;;;;;;;;;;5051851;28;21056;-52
2020/12/15 08:08:40;;;;;;;7.90;7.10;;;;;;;;;;5051878;28;20453;-53
2020/12/15 08:11:18;;;;;;;8.80;6.80;;;;;;;;;;5051622;28;20401;-49
2020/12/15 08:13:45;;;;;;;6.17;5.67;;;;;;;;;;5051696;28;20412;-49
2020/12/15 08:16:16;;;;;;;5.60;5.17;;;;;;;;;;5051516;28;20888;-53
2020/12/15 08:18:43;;;;;;;7.40;6.60;;;;;;;;;;5051284;28;20903;-48
2020/12/15 08:21:17;;;;;;;6.57;5.80;;;;;;;;;;5051406;28;20434;-51
2020/12/15 08:23:52;;;;;;;6.87;6.20;;;;;;;;;;5051575;28;20401;-49
2020/12/15 08:26:20;;;;;;;6.70;6.10;;;;;;;;;;5051136;28;20442;-49
2020/12/15 08:28:48;;;;;;;7.10;5.90;;;;;;;;;;5051326;28;20478;-49
2020/12/15 08:31:14;;;;;;;7.90;6.20;;;;;;;;;;5051241;28;20809;-49
2020/12/15 08:33:40;;;;;;;5.90;5.40;;;;;;;;;;5051200;28;20484;-49
2020/12/15 08:36:10;;;;;;;6.33;5.80;;;;;;;;;;5053441;28;20814;-51
2020/12/15 08:38:43;;;;;;;9.87;6.87;;;;;;;;;;5050317;28;20409;-51
2020/12/15 08:41:14;;;;;;;6.23;5.63;;;;;;;;;;5050591;28;20405;-50
2020/12/15 08:43:40;;;;;;;6.67;6.07;;;;;;;;;;5051283;28;20413;-50
2020/12/15 08:46:25;;;;;;;5.93;5.43;;;;;;;;;;5051154;28;20409;-50
2020/12/15 08:48:51;;;;;;;6.10;5.30;;;;;;;;;;5051078;28;20488;-51
2020/12/15 08:51:17;;;;;;;6.13;5.47;;;;;;;;;;5050900;28;20951;-51
2020/12/15 08:53:44;;;;;;;5.47;4.97;;;;;;;;;;5050916;28;20467;-51
2020/12/15 08:56:13;;;;;;;5.40;4.63;;;;;;;;;;5050873;28;20417;-50
2020/12/15 08:58:39;;;;;;;5.40;4.90;;;;;;;;;;5050676;28;20812;-52
2020/12/15 09:01:05;;;;;;;5.07;4.67;;;;;;;;;;5051282;28;20401;-53
2020/12/15 09:03:35;;;;;;;5.37;4.97;;;;;;;;;;5070038;28;20911;-52
2020/12/15 09:06:01;;;;;;;4.50;4.20;;;;;;;;;;5070732;28;20899;-50
2020/12/15 09:08:27;;;;;;;4.37;4.07;;;;;;;;;;5070691;28;20862;-50
2020/12/15 09:10:55;;;;;;;5.00;4.60;;;;;;;;;;5070643;28;20414;-52
2020/12/15 09:13:21;;;;;;;4.53;4.13;;;;;;;;;;5070499;28;20925;-51
2020/12/15 09:15:51;;;;;;;5.40;4.90;;;;;;;;;;5070660;28;20408;-51
2020/12/15 09:18:17;;;;;;;4.47;4.17;;;;;;;;;;5070512;28;20417;-51
2020/12/15 09:20:43;;;;;;;4.97;4.57;;;;;;;;;;5070580;28;20432;-52
2020/12/15 09:23:09;;;;;;;5.40;4.90;;;;;;;;;;5070313;28;20404;-51
2020/12/15 09:25:35;;;;;;;4.90;4.50;;;;;;;;;;5070626;28;20907;-50
2020/12/15 09:28:01;;;;;;;4.97;4.57;;;;;;;;;;5061141;28;20456;-52
2020/12/15 09:30:27;;;;;;;4.80;4.47;;;;;;;;;;5050844;28;20405;-51
2020/12/15 09:32:53;;;;;;;4.77;4.47;;;;;;;;;;5054528;28;20403;-52
2020/12/15 09:35:19;;;;;;;4.53;4.13;;;;;;;;;;5054570;28;20401;-50
2020/12/15 09:37:46;;;;;;;4.73;4.33;;;;;;;;;;5054531;28;20420;-50
2020/12/15 09:40:13;;;;;;;4.50;4.10;;;;;;;;;;5054562;28;20409;-51
2020/12/15 09:42:42;;;;;;;3.90;3.67;;;;;;;;;;5054360;28;20436;-50
2020/12/15 09:45:08;;;;;;;4.17;3.77;;;;;;;;;;5054454;28;20404;-50
2020/12/15 09:47:39;;;;;;;5.67;3.93;;;;;;;;;;5054448;28;20455;-51
2020/12/15 09:50:05;;;;;;;4.00;3.70;;;;;;;;;;5054278;28;20453;-52
2020/12/15 09:52:31;;;;;;;4.60;4.20;;;;;;;;;;5054176;28;20433;-50
2020/12/15 09:54:57;;;;;;;3.90;3.60;;;;;;;;;;5054474;28;20433;-52
2020/12/15 09:57:23;;;;;;;3.90;3.60;;;;;;;;;;5054062;28;20443;-51
2020/12/15 09:59:50;;;;;;;4.47;4.07;;;;;;;;;;5054221;28;20441;-51
2020/12/15 10:02:16;;;;;;;3.50;3.30;;;;;;;;;;5053863;28;20539;-51
2020/12/15 10:04:42;;;;;;;4.07;3.77;;;;;;;;;;5058520;28;20967;-49
2020/12/15 10:07:08;;;;;;;4.07;3.20;;;;;;;;;;5073282;28;20791;-50
2020/12/15 10:09:34;;;;;;;4.53;3.60;;;;;;;;;;5073964;28;20452;-50
2020/12/15 10:12:00;;;;;;;3.77;3.43;;;;;;;;;;5073709;28;20396;-51
2020/12/15 10:14:26;;;;;;;3.90;3.60;;;;;;;;;;5073967;28;20393;-49
2020/12/15 10:16:52;;;;;;;5.90;4.77;;;;;;;;;;5076660;28;20752;-50
2020/12/15 10:19:18;;;;;;;3.67;3.37;;;;;;;;;;5074525;28;20401;-50
2020/12/15 10:21:44;;;;;;;4.63;3.93;;;;;;;;;;5073382;28;20411;-52
2020/12/15 10:24:10;;;;;;;4.17;3.87;;;;;;;;;;5072116;28;21109;-53
2020/12/15 10:26:36;;;;;;;4.10;3.80;;;;;;;;;;5073601;28;20439;-51
2020/12/15 10:29:02;;;;;;;3.60;3.30;;;;;;;;;;5063478;28;20468;-49
2020/12/15 10:31:28;;;;;;;3.67;3.47;;;;;;;;;;5065635;28;20435;-51
2020/12/15 10:33:54;;;;;;;4.13;3.83;;;;;;;;;;5073419;28;20973;-49
2020/12/15 10:36:20;;;;;;;3.67;3.40;;;;;;;;;;5073467;28;20400;-49
2020/12/15 10:38:46;;;;;;;3.73;3.43;;;;;;;;;;5073419;28;20393;-49
2020/12/15 10:41:12;;;;;;;4.13;3.83;;;;;;;;;;5073001;28;20400;-49
2020/12/15 10:43:38;;;;;;;3.90;3.60;;;;;;;;;;5073169;28;20408;-50
2020/12/15 10:46:04;;;;;;;4.57;4.27;;;;;;;;;;5073302;28;20409;-49
2020/12/15 10:48:30;;;;;;;5.00;4.60;;;;;;;;;;5073058;28;20490;-49
2020/12/15 10:50:56;;;;;;;5.13;4.60;;;;;;;;;;5073349;28;20400;-49
2020/12/15 10:53:22;;;;;;;4.70;4.30;;;;;;;;;;5067915;28;20828;-49
2020/12/15 10:55:49;;;;;;;4.53;4.23;;;;;;;;;;5060681;28;20421;-49
2020/12/15 10:58:15;;;;;;;4.83;4.43;;;;;;;;;;5053754;28;20457;-50
2020/12/15 11:00:41;;;;;;;5.33;4.77;;;;;;;;;;5053846;28;20419;-51
2020/12/15 11:03:08;;;;;;;5.67;5.13;;;;;;;;;;5057161;28;20420;-49
2020/12/15 11:05:33;;;;;;;10.00;4.50;;;;;;;;;;5056830;28;20837;-50
2020/12/15 11:07:59;;;;;;;5.20;4.70;;;;;;;;;;5052799;28;20424;-49
2020/12/15 11:10:25;;;;;;;5.40;4.60;;;;;;;;;;5066478;28;20808;-50
2020/12/15 11:12:51;;;;;;;5.60;5.10;;;;;;;;;;5062966;28;20421;-50
2020/12/15 11:15:17;;;;;;;4.77;4.30;;;;;;;;;;5059149;28;20988;-49
2020/12/15 11:17:43;;;;;;;4.40;4.00;;;;;;;;;;5052273;28;20425;-49
2020/12/15 11:20:09;;;;;;;4.13;3.83;;;;;;;;;;5059445;28;20404;-50
2020/12/15 11:22:35;;;;;;;4.20;3.90;;;;;;;;;;5072216;28;20758;-51
2020/12/15 11:25:01;;;;;;;4.30;4.00;;;;;;;;;;5072315;28;20400;-51
2020/12/15 11:27:27;;;;;;;5.43;4.73;;;;;;;;;;5071970;28;20503;-51
2020/12/15 11:29:53;;;;;;;5.60;5.10;;;;;;;;;;5052696;28;20468;-51
2020/12/15 11:32:19;;;;;;;4.77;4.20;;;;;;;;;;5065394;28;20411;-52
2020/12/15 11:34:45;;;;;;;5.10;4.37;;;;;;;;;;5092394;28;20419;-52
2020/12/15 11:37:12;;;;;;;4.60;4.30;;;;;;;;;;5092237;28;20923;-51
2020/12/15 11:39:39;;;;;;;6.77;4.30;;;;;;;;;;5092176;28;20937;-49
2020/12/15 11:42:08;;;;;;;5.17;3.87;;;;;;;;;;5091260;28;20425;-51
2020/12/15 11:44:35;;;;;;;4.60;4.20;;;;;;;;;;5092012;28;20409;-50
2020/12/15 11:47:02;;;;;;;4.40;4.10;;;;;;;;;;5089490;28;20458;-50
2020/12/15 11:49:29;;;;;;;4.70;4.30;;;;;;;;;;5082127;28;20809;-50
2020/12/15 11:51:56;;;;;;;4.80;4.40;;;;;;;;;;5083059;28;20411;-51
2020/12/15 11:54:22;;;;;;;4.43;4.10;;;;;;;;;;5071045;28;20412;-52
2020/12/15 11:56:50;;;;;;;4.63;4.23;;;;;;;;;;5067657;28;20483;-50
2020/12/15 11:59:16;;;;;;;4.60;4.20;;;;;;;;;;5067715;28;20931;-50
2020/12/15 12:01:42;;;;;;;4.97;4.57;;;;;;;;;;5067477;28;20414;-49
2020/12/15 12:04:08;;;;;;;4.47;4.10;;;;;;;;;;5059235;28;20412;-51
2020/12/15 12:06:34;;;;;;;5.40;4.90;;;;;;;;;;5083824;28;20602;-51
2020/12/15 12:09:01;;;;;;;6.33;5.13;;;;;;;;;;5066386;28;20492;-51
2020/12/15 12:11:27;;;;;;;8.23;4.80;;;;;;;;;;5061087;28;20412;-50
2020/12/15 12:13:53;;;;;;;6.63;5.93;;;;;;;;;;5060344;28;20442;-49
2020/12/15 12:16:19;;;;;;;5.80;4.83;;;;;;;;;;5052746;28;20806;-49
2020/12/15 12:18:46;;;;;;;5.80;5.13;;;;;;;;;;5063585;28;20443;-50
2020/12/15 12:21:12;;;;;;;6.13;5.53;;;;;;;;;;5069626;28;20425;-52
2020/12/15 12:23:39;;;;;;;6.10;5.60;;;;;;;;;;5068868;28;20408;-52
2020/12/15 12:26:05;;;;;;;5.97;5.33;;;;;;;;;;5055971;28;20416;-50
2020/12/15 12:28:32;;;;;;;7.77;5.50;;;;;;;;;;5057248;28;21005;-52
2020/12/15 12:30:59;;;;;;;6.47;5.87;;;;;;;;;;5053448;28;20853;-51
2020/12/15 12:33:25;;;;;;;5.83;5.27;;;;;;;;;;5049527;28;20500;-51
2020/12/15 12:35:54;;;;;;;6.20;5.60;;;;;;;;;;5050869;28;20412;-52
2020/12/15 12:38:22;;;;;;;8.50;6.73;;;;;;;;;;5055685;28;20936;-52
2020/12/15 12:40:49;;;;;;;6.37;5.77;;;;;;;;;;5070781;28;20412;-51
2020/12/15 12:43:16;;;;;;;9.80;6.83;;;;;;;;;;5067122;28;20498;-52
2020/12/15 12:45:42;;;;;;;15.17;7.83;;;;;;;;;;5051268;28;20398;-52
2020/12/15 12:48:09;;;;;;;12.70;6.77;;;;;;;;;;5052960;28;20963;-52
2020/12/15 12:50:35;;;;;;;10.90;7.90;;;;;;;;;;5051017;28;20401;-52
2020/12/15 12:53:01;;;;;;;9.27;7.70;;;;;;;;;;5057677;28;20410;-52
2020/12/15 12:55:27;;;;;;;9.53;8.40;;;;;;;;;;5057905;28;20828;-51
2020/12/15 12:57:54;;;;;;;9.33;7.47;;;;;;;;;;5069022;28;20522;-51
2020/12/15 13:00:22;;;;;;;11.20;8.27;;;;;;;;;;5069852;28;20448;-52
2020/12/15 13:02:48;;;;;;;9.90;8.10;;;;;;;;;;5059453;28;20520;-51
2020/12/15 13:05:14;;;;;;;10.77;8.43;;;;;;;;;;5065882;28;20417;-52
2020/12/15 13:07:42;;;;;;;15.60;7.87;;;;;;;;;;5062545;28;20481;-51
2020/12/15 13:10:08;;;;;;;8.40;7.60;;;;;;;;;;5070036;28;20896;-51
2020/12/15 13:12:34;;;;;;;9.03;8.07;;;;;;;;;;5069548;28;20476;-52
2020/12/15 13:15:00;;;;;;;9.37;8.30;;;;;;;;;;5070569;28;20808;-51
2020/12/15 13:17:26;;;;;;;9.73;7.83;;;;;;;;;;5069005;28;20427;-52
2020/12/15 13:19:52;;;;;;;7.70;7.00;;;;;;;;;;5062358;28;20428;-51
2020/12/15 13:22:18;;;;;;;9.03;7.80;;;;;;;;;;5055621;28;20775;-52
2020/12/15 13:24:44;;;;;;;11.33;7.77;;;;;;;;;;5070608;28;20762;-52
2020/12/15 13:27:10;;;;;;;12.63;7.57;;;;;;;;;;5059291;28;20433;-51
2020/12/15 13:29:36;;;;;;;10.07;8.87;;;;;;;;;;5051249;28;20457;-51
2020/12/15 13:32:02;;;;;;;9.70;7.17;;;;;;;;;;5051382;28;20428;-51
2020/12/15 13:34:28;;;;;;;9.10;7.90;;;;;;;;;;5062474;28;20416;-52
2020/12/15 13:36:54;;;;;;;12.97;7.57;;;;;;;;;;5070468;28;20420;-51
2020/12/15 13:39:20;;;;;;;9.40;7.53;;;;;;;;;;5060778;28;20409;-52
2020/12/15 13:41:46;;;;;;;11.33;7.90;;;;;;;;;;5050224;28;20955;-51
2020/12/15 13:44:12;;;;;;;12.10;7.63;;;;;;;;;;5057134;28;20441;-52
2020/12/15 13:46:38;;;;;;;9.40;8.40;;;;;;;;;;5069230;28;21215;-52
2020/12/15 13:49:04;;;;;;;13.23;7.60;;;;;;;;;;5070384;28;20451;-52
2020/12/15 13:51:30;;;;;;;8.90;8.00;;;;;;;;;;5067066;28;20905;-52
2020/12/15 13:53:56;;;;;;;8.10;7.30;;;;;;;;;;5070490;28;20408;-52
2020/12/15 13:56:24;;;;;;;12.10;8.07;;;;;;;;;;5052243;28;20413;-52
2020/12/15 13:58:50;;;;;;;9.43;8.40;;;;;;;;;;5057382;28;20448;-51
2020/12/15 14:01:15;;;;;;;12.40;8.43;;;;;;;;;;5053732;28;20824;-51
2020/12/15 14:03:41;;;;;;;12.60;8.30;;;;;;;;;;5060244;28;20503;-52
2020/12/15 14:06:07;;;;;;;9.87;7.87;;;;;;;;;;5050151;28;20483;-51
2020/12/15 14:08:33;;;;;;;11.70;8.30;;;;;;;;;;5050333;28;20453;-51
2020/12/15 14:10:59;;;;;;;18.53;8.73;;;;;;;;;;5051244;28;20420;-51
2020/12/15 14:13:26;;;;;;;9.40;8.23;;;;;;;;;;5049903;28;20404;-51
2020/12/15 14:15:52;;;;;;;10.07;8.30;;;;;;;;;;5065156;28;20414;-52
2020/12/15 14:18:18;;;;;;;12.00;8.50;;;;;;;;;;5066845;28;20433;-51
2020/12/15 14:20:44;;;;;;;14.70;8.80;;;;;;;;;;5053684;28;20401;-52
2020/12/15 14:23:10;;;;;;;10.33;9.00;;;;;;;;;;5066518;28;20408;-51
2020/12/15 14:25:38;;;;;;;10.50;8.40;;;;;;;;;;5073658;28;20432;-52
2020/12/15 14:28:05;;;;;;;11.00;8.73;;;;;;;;;;5071603;28;20435;-51
2020/12/15 14:30:31;;;;;;;13.63;9.77;;;;;;;;;;5052974;28;20468;-51
2020/12/15 14:32:57;;;;;;;13.20;9.60;;;;;;;;;;5053526;28;20397;-51
2020/12/15 14:35:23;;;;;;;12.83;9.40;;;;;;;;;;5054529;28;20416;-52
2020/12/15 14:37:49;;;;;;;15.17;11.47;;;;;;;;;;5064655;28;20443;-51
2020/12/15 14:40:15;;;;;;;18.13;10.13;;;;;;;;;;5073402;28;20951;-52